Time;durP1;ratioP1;P1;durP2;ratioP2;P2;SDS_P1;SDS_P2;PMS_P1;PMS_P2;Temp;Humidity;BMP_temperature;BMP_pressure;BME280_temperature;BME280_humidity;BME280_pressure;Samples;Min_cycle;Max_cycle;Signal;HPM_P1;HPM_P2
2023/09/01 00:02:13;;;;;;;1999.90;999.90;;;;;;;;;;4938659;28;20577;-70
2023/09/01 00:04:57;;;;;;;1999.90;999.90;;;;;;;;;;4944313;28;20269;-73
2023/09/01 00:07:42;;;;;;;1999.90;999.90;;;;;;;;;;4943907;28;20214;-74
2023/09/01 00:10:27;;;;;;;1999.90;999.90;;;;;;;;;;4944960;28;20285;-74
2023/09/01 00:13:14;;;;;;;1999.90;999.90;;;;;;;;;;4952621;28;20740;-70
2023/09/01 00:15:59;;;;;;;1999.90;999.90;;;;;;;;;;4937272;28;20213;-73
2023/09/01 00:18:44;;;;;;;1999.90;999.90;;;;;;;;;;4941628;28;20240;-70
2023/09/01 00:21:29;;;;;;;1999.90;999.90;;;;;;;;;;4941143;28;20213;-71
2023/09/01 00:24:14;;;;;;;1999.90;999.90;;;;;;;;;;4947067;28;20220;-71
2023/09/01 00:26:59;;;;;;;1999.90;999.90;;;;;;;;;;4945777;28;20208;-70
2023/09/01 00:29:46;;;;;;;1999.90;999.90;;;;;;;;;;4937633;28;20316;-71
2023/09/01 00:32:30;;;;;;;1999.90;999.90;;;;;;;;;;4941262;28;20221;-73
2023/09/01 00:35:15;;;;;;;1999.90;999.90;;;;;;;;;;4958822;28;20443;-72
2023/09/01 00:38:00;;;;;;;1999.90;999.90;;;;;;;;;;4956568;28;20311;-73
2023/09/01 00:40:46;;;;;;;1999.90;999.90;;;;;;;;;;4956754;28;20336;-73
2023/09/01 00:43:31;;;;;;;1999.90;999.90;;;;;;;;;;4961512;28;20211;-74
2023/09/01 00:46:17;;;;;;;1999.90;999.90;;;;;;;;;;4956378;28;20582;-72
2023/09/01 00:49:03;;;;;;;1999.90;999.90;;;;;;;;;;4961555;28;20244;-73
2023/09/01 00:51:48;;;;;;;1999.90;999.90;;;;;;;;;;4961623;28;20211;-73
2023/09/01 00:54:33;;;;;;;1999.90;999.90;;;;;;;;;;4960992;28;20644;-73
2023/09/01 00:57:20;;;;;;;1999.90;999.90;;;;;;;;;;4960738;28;20224;-75
2023/09/01 01:00:06;;;;;;;1999.90;999.90;;;;;;;;;;4936361;29;20256;-73
2023/09/01 01:02:53;;;;;;;1999.90;999.90;;;;;;;;;;4954974;28;20259;-74
2023/09/01 01:05:42;;;;;;;1999.90;999.90;;;;;;;;;;4953638;29;20641;-74
2023/09/01 01:08:31;;;;;;;1999.90;999.90;;;;;;;;;;4953883;29;20229;-74
2023/09/01 01:11:22;;;;;;;1999.90;999.90;;;;;;;;;;4953358;29;20254;-74
2023/09/01 01:14:09;;;;;;;1999.90;999.90;;;;;;;;;;4953757;29;20209;-74
2023/09/01 01:16:54;;;;;;;1999.90;999.90;;;;;;;;;;4953848;29;20208;-74
2023/09/01 01:19:43;;;;;;;1999.90;999.90;;;;;;;;;;4952830;29;20433;-73
2023/09/01 01:22:36;;;;;;;1999.90;999.90;;;;;;;;;;4953621;29;20216;-73
2023/09/01 01:25:22;;;;;;;1999.90;999.90;;;;;;;;;;4953580;29;20224;-73
2023/09/01 01:28:07;;;;;;;1999.90;999.90;;;;;;;;;;4953637;29;20356;-74
2023/09/01 01:30:53;;;;;;;1999.90;999.90;;;;;;;;;;4953546;29;20211;-74
2023/09/01 01:33:43;;;;;;;1999.90;999.90;;;;;;;;;;4953709;29;20208;-73
2023/09/01 01:36:31;;;;;;;1999.90;999.90;;;;;;;;;;4953429;29;20689;-72
2023/09/01 01:39:16;;;;;;;1999.90;999.90;;;;;;;;;;4953305;28;20843;-74
2023/09/01 01:42:06;;;;;;;1999.90;999.90;;;;;;;;;;4952139;29;20409;-72
2023/09/01 01:44:51;;;;;;;1999.90;999.90;;;;;;;;;;4953485;29;20317;-73
2023/09/01 01:47:36;;;;;;;1999.90;999.90;;;;;;;;;;4953743;29;20248;-73
2023/09/01 01:50:21;;;;;;;1999.90;999.90;;;;;;;;;;4953368;29;20205;-73
2023/09/01 01:53:07;;;;;;;1999.90;999.90;;;;;;;;;;4953437;29;20209;-73
2023/09/01 01:55:51;;;;;;;1999.90;999.90;;;;;;;;;;4953547;29;20204;-73
2023/09/01 01:58:39;;;;;;;1999.90;999.90;;;;;;;;;;4953421;29;20236;-74
2023/09/01 02:01:25;;;;;;;1999.90;999.90;;;;;;;;;;4953273;29;20274;-72
2023/09/01 02:04:10;;;;;;;1999.90;999.90;;;;;;;;;;4953184;29;20336;-73
2023/09/01 02:06:55;;;;;;;1999.90;999.90;;;;;;;;;;4953404;29;20209;-72
2023/09/01 02:09:40;;;;;;;1999.90;999.90;;;;;;;;;;4953228;29;20245;-73
2023/09/01 02:12:25;;;;;;;1999.90;999.90;;;;;;;;;;4953303;29;20605;-74
2023/09/01 02:15:11;;;;;;;1999.90;999.90;;;;;;;;;;4953393;29;20201;-74
2023/09/01 02:17:57;;;;;;;1999.90;999.90;;;;;;;;;;4953274;29;20224;-73
2023/09/01 02:20:42;;;;;;;1999.90;999.90;;;;;;;;;;4952782;29;20212;-74
2023/09/01 02:23:27;;;;;;;1999.90;999.90;;;;;;;;;;4953309;29;20205;-74
2023/09/01 02:26:17;;;;;;;1999.90;999.90;;;;;;;;;;4953282;28;20568;-74
2023/09/01 02:29:04;;;;;;;1999.90;999.90;;;;;;;;;;4956560;29;20229;-73
2023/09/01 02:31:53;;;;;;;1999.90;999.90;;;;;;;;;;4956443;29;20704;-73
2023/09/01 02:34:37;;;;;;;1999.90;999.90;;;;;;;;;;4956609;29;20721;-74
2023/09/01 02:37:22;;;;;;;1999.90;999.90;;;;;;;;;;4956622;29;20212;-74
2023/09/01 02:40:11;;;;;;;1999.90;999.90;;;;;;;;;;4956160;29;20576;-74
2023/09/01 02:42:56;;;;;;;1999.90;999.90;;;;;;;;;;4956452;29;20213;-74
2023/09/01 02:45:42;;;;;;;1999.90;999.90;;;;;;;;;;4956371;29;20227;-74
2023/09/01 02:48:28;;;;;;;1999.90;999.90;;;;;;;;;;4955215;29;20408;-74
2023/09/01 02:51:13;;;;;;;1999.90;999.90;;;;;;;;;;4956062;29;20566;-74
2023/09/01 02:53:59;;;;;;;1999.90;999.90;;;;;;;;;;4956233;29;20207;-74
2023/09/01 02:56:44;;;;;;;1999.90;999.90;;;;;;;;;;4956217;29;20282;-74
2023/09/01 02:59:29;;;;;;;1999.90;999.90;;;;;;;;;;4956389;29;20240;-73
2023/09/01 03:02:14;;;;;;;1999.90;999.90;;;;;;;;;;4955698;29;20208;-72
2023/09/01 03:05:00;;;;;;;1999.90;999.90;;;;;;;;;;4955916;29;20250;-74
2023/09/01 03:07:45;;;;;;;1999.90;999.90;;;;;;;;;;4949175;28;20341;-73
2023/09/01 03:10:30;;;;;;;1999.90;999.90;;;;;;;;;;4946966;28;20326;-74
2023/09/01 03:13:15;;;;;;;1999.90;999.90;;;;;;;;;;4944552;28;20277;-74
2023/09/01 03:16:00;;;;;;;1999.90;999.90;;;;;;;;;;4942196;28;20353;-69
2023/09/01 03:18:45;;;;;;;1999.90;999.90;;;;;;;;;;4941058;28;20297;-71
2023/09/01 03:21:32;;;;;;;1999.90;999.90;;;;;;;;;;4944956;28;20695;-71
2023/09/01 03:24:17;;;;;;;1999.90;999.90;;;;;;;;;;4950101;28;20261;-73
2023/09/01 03:27:01;;;;;;;1999.90;999.90;;;;;;;;;;4954938;28;20602;-73
2023/09/01 03:29:47;;;;;;;1999.90;999.90;;;;;;;;;;4963657;28;20244;-73
2023/09/01 03:32:33;;;;;;;1999.90;999.90;;;;;;;;;;4971342;28;20252;-74
2023/09/01 03:35:18;;;;;;;1999.90;999.90;;;;;;;;;;4954245;28;20792;-73
2023/09/01 03:38:05;;;;;;;1999.90;999.90;;;;;;;;;;4938844;28;20239;-72
2023/09/01 03:40:50;;;;;;;1999.90;999.90;;;;;;;;;;4965175;28;20292;-73
2023/09/01 03:43:35;;;;;;;1999.90;999.90;;;;;;;;;;4972137;28;20699;-72
2023/09/01 03:46:20;;;;;;;1999.90;999.90;;;;;;;;;;4969121;28;20228;-74
2023/09/01 03:49:05;;;;;;;1999.90;999.90;;;;;;;;;;4967146;28;20740;-73
2023/09/01 03:51:50;;;;;;;1999.90;999.90;;;;;;;;;;4972657;28;20212;-73
2023/09/01 03:54:36;;;;;;;1999.90;999.90;;;;;;;;;;4962137;28;20808;-73
2023/09/01 03:57:22;;;;;;;1999.90;999.90;;;;;;;;;;4937066;29;20205;-72
2023/09/01 04:00:10;;;;;;;1999.90;999.90;;;;;;;;;;4955473;28;20248;-73
2023/09/01 04:02:55;;;;;;;1999.90;999.90;;;;;;;;;;4953910;28;20815;-73
2023/09/01 04:05:40;;;;;;;1999.90;999.90;;;;;;;;;;4962689;28;20228;-73
2023/09/01 04:08:25;;;;;;;1999.90;999.90;;;;;;;;;;4960068;28;20630;-73
2023/09/01 04:11:11;;;;;;;1999.90;999.90;;;;;;;;;;4947728;29;20701;-73
2023/09/01 04:13:56;;;;;;;1999.90;999.90;;;;;;;;;;4961588;28;20586;-74
2023/09/01 04:16:41;;;;;;;1999.90;999.90;;;;;;;;;;4970204;28;20224;-73
2023/09/01 04:19:26;;;;;;;1999.90;999.90;;;;;;;;;;4957656;28;20312;-73
2023/09/01 04:22:11;;;;;;;1999.90;999.90;;;;;;;;;;4939315;28;20328;-72
2023/09/01 04:24:56;;;;;;;1999.90;999.90;;;;;;;;;;4963870;28;20224;-71
2023/09/01 04:27:42;;;;;;;1999.90;999.90;;;;;;;;;;4964213;28;20231;-73
2023/09/01 04:30:27;;;;;;;1999.90;999.90;;;;;;;;;;4968687;28;20259;-73
2023/09/01 04:33:12;;;;;;;1999.90;999.90;;;;;;;;;;4965791;28;20217;-72
2023/09/01 04:35:59;;;;;;;1999.90;999.90;;;;;;;;;;4972747;28;20212;-73
2023/09/01 04:38:44;;;;;;;1999.90;999.90;;;;;;;;;;4961451;28;20368;-73
2023/09/01 04:41:29;;;;;;;1999.90;999.90;;;;;;;;;;4960524;28;21071;-74
2023/09/01 04:44:15;;;;;;;1999.90;999.90;;;;;;;;;;4955420;28;20280;-73
2023/09/01 04:47:00;;;;;;;1999.90;999.90;;;;;;;;;;4955637;28;20243;-74
2023/09/01 04:49:45;;;;;;;1999.90;999.90;;;;;;;;;;4964856;28;20606;-73
2023/09/01 04:52:30;;;;;;;1999.90;999.90;;;;;;;;;;4966093;28;20683;-72
2023/09/01 04:55:14;;;;;;;1999.90;999.90;;;;;;;;;;4945741;28;20460;-71
2023/09/01 04:58:00;;;;;;;1999.90;999.90;;;;;;;;;;4945945;28;20765;-69
2023/09/01 05:00:46;;;;;;;1999.90;999.90;;;;;;;;;;4939335;28;20710;-72
2023/09/01 05:03:31;;;;;;;1999.90;999.90;;;;;;;;;;4942746;28;20416;-70
2023/09/01 05:06:16;;;;;;;1999.90;999.90;;;;;;;;;;4944800;28;20538;-71
2023/09/01 05:09:01;;;;;;;1999.90;999.90;;;;;;;;;;4935518;28;20324;-69
2023/09/01 05:11:46;;;;;;;1999.90;999.90;;;;;;;;;;4936948;28;20621;-73
2023/09/01 05:14:31;;;;;;;1999.90;999.90;;;;;;;;;;4942935;28;20213;-71
2023/09/01 05:17:17;;;;;;;1999.90;999.90;;;;;;;;;;4940947;28;20200;-73
2023/09/01 05:20:03;;;;;;;1999.90;999.90;;;;;;;;;;4943025;28;20213;-73
2023/09/01 05:22:48;;;;;;;1999.90;999.90;;;;;;;;;;4937763;28;20244;-73
2023/09/01 05:25:33;;;;;;;1999.90;999.90;;;;;;;;;;4946790;28;20656;-72
2023/09/01 05:28:18;;;;;;;1999.90;999.90;;;;;;;;;;4942016;28;20231;-69
2023/09/01 05:31:03;;;;;;;1999.90;999.90;;;;;;;;;;4943446;28;20303;-69
2023/09/01 05:33:50;;;;;;;1999.90;999.90;;;;;;;;;;4941956;28;20223;-74
2023/09/01 05:36:36;;;;;;;1999.90;999.90;;;;;;;;;;4943838;28;20293;-72
2023/09/01 05:39:21;;;;;;;1999.90;999.90;;;;;;;;;;4940765;28;20239;-71
2023/09/01 05:42:07;;;;;;;1999.90;999.90;;;;;;;;;;4943074;28;20228;-70
2023/09/01 05:44:52;;;;;;;1999.90;999.90;;;;;;;;;;4942303;28;20706;-72
2023/09/01 05:47:37;;;;;;;1999.90;999.90;;;;;;;;;;4947073;28;20249;-74
2023/09/01 05:50:23;;;;;;;1999.90;999.90;;;;;;;;;;4939990;28;21214;-72
2023/09/01 05:53:08;;;;;;;1999.90;999.90;;;;;;;;;;4944575;28;20337;-73
2023/09/01 05:55:53;;;;;;;1999.90;999.90;;;;;;;;;;4948556;28;20213;-73
2023/09/01 05:58:38;;;;;;;1999.90;999.90;;;;;;;;;;4947297;28;20739;-73
2023/09/01 06:01:23;;;;;;;1999.90;999.90;;;;;;;;;;4952756;28;20263;-73
2023/09/01 06:04:09;;;;;;;1999.90;999.90;;;;;;;;;;4957489;28;20221;-74
2023/09/01 06:06:55;;;;;;;1999.90;999.90;;;;;;;;;;4956545;28;20717;-73
2023/09/01 06:09:40;;;;;;;1999.90;999.90;;;;;;;;;;4964184;28;20933;-73
2023/09/01 06:12:25;;;;;;;1999.90;999.90;;;;;;;;;;4964710;28;20299;-73
2023/09/01 06:15:10;;;;;;;1999.90;999.90;;;;;;;;;;4956717;28;20216;-73
2023/09/01 06:17:55;;;;;;;1999.90;999.90;;;;;;;;;;4948200;28;20250;-72
2023/09/01 06:20:40;;;;;;;1999.90;999.90;;;;;;;;;;4943603;28;20209;-74
2023/09/01 06:23:26;;;;;;;1999.90;999.90;;;;;;;;;;4944374;28;20716;-74
2023/09/01 06:26:11;;;;;;;1999.90;999.90;;;;;;;;;;4945806;28;20292;-73
2023/09/01 06:28:56;;;;;;;1999.90;999.90;;;;;;;;;;4956502;28;20613;-73
2023/09/01 06:31:41;;;;;;;1999.90;999.90;;;;;;;;;;4950466;28;20726;-72
2023/09/01 06:34:26;;;;;;;1999.90;999.90;;;;;;;;;;4941918;28;20729;-74
2023/09/01 06:37:11;;;;;;;1999.90;999.90;;;;;;;;;;4943028;28;20216;-72
2023/09/01 06:39:58;;;;;;;1999.90;999.90;;;;;;;;;;4944761;28;20295;-74
2023/09/01 06:42:43;;;;;;;1999.90;999.90;;;;;;;;;;4952266;28;20578;-70
2023/09/01 06:45:28;;;;;;;1999.90;999.90;;;;;;;;;;4942541;28;20687;-73
2023/09/01 06:48:12;;;;;;;1999.90;999.90;;;;;;;;;;4947511;28;20335;-73
2023/09/01 06:50:59;;;;;;;1999.90;999.90;;;;;;;;;;4960992;28;20212;-74
2023/09/01 06:53:44;;;;;;;1999.90;999.90;;;;;;;;;;4961225;28;20217;-74
2023/09/01 06:56:31;;;;;;;1999.90;999.90;;;;;;;;;;4956807;28;20969;-74
2023/09/01 06:59:15;;;;;;;1999.90;999.90;;;;;;;;;;4960997;28;20236;-73
2023/09/01 07:02:00;;;;;;;1999.90;999.90;;;;;;;;;;4958347;28;20215;-73
2023/09/01 07:04:46;;;;;;;1999.90;999.90;;;;;;;;;;4958272;28;20586;-74
2023/09/01 07:07:31;;;;;;;1999.90;999.90;;;;;;;;;;4961791;28;20709;-73
2023/09/01 07:10:16;;;;;;;1999.90;999.90;;;;;;;;;;4959299;28;20809;-73
2023/09/01 07:13:02;;;;;;;1999.90;999.90;;;;;;;;;;4960606;28;20361;-73
2023/09/01 07:15:49;;;;;;;1999.90;999.90;;;;;;;;;;4960656;28;20267;-72
2023/09/01 07:18:34;;;;;;;1999.90;999.90;;;;;;;;;;4959098;28;20850;-74
2023/09/01 07:21:19;;;;;;;1999.90;999.90;;;;;;;;;;4957796;28;20287;-74
2023/09/01 07:24:05;;;;;;;1999.90;999.90;;;;;;;;;;4961123;28;20229;-76
2023/09/01 07:26:50;;;;;;;1999.90;999.90;;;;;;;;;;4959541;28;20299;-73
2023/09/01 07:29:36;;;;;;;1999.90;999.90;;;;;;;;;;4954811;28;21269;-74
2023/09/01 07:32:21;;;;;;;1999.90;999.90;;;;;;;;;;4958852;28;20294;-72
2023/09/01 07:35:06;;;;;;;1999.90;999.90;;;;;;;;;;4954067;28;20208;-73
2023/09/01 07:37:51;;;;;;;1999.90;999.90;;;;;;;;;;4959105;28;20224;-73
2023/09/01 07:40:36;;;;;;;1999.90;999.90;;;;;;;;;;4960587;28;20223;-71
2023/09/01 07:43:21;;;;;;;1999.90;999.90;;;;;;;;;;4952737;28;20213;-73
2023/09/01 07:46:07;;;;;;;1999.90;999.90;;;;;;;;;;4960386;28;20288;-73
2023/09/01 07:48:52;;;;;;;1999.90;999.90;;;;;;;;;;4963636;28;20303;-73
2023/09/01 07:51:38;;;;;;;1999.90;999.90;;;;;;;;;;4965048;28;20295;-71
2023/09/01 07:54:23;;;;;;;1999.90;999.90;;;;;;;;;;4964434;28;20267;-73
2023/09/01 07:57:08;;;;;;;1999.90;999.90;;;;;;;;;;4958163;28;20264;-74
2023/09/01 07:59:53;;;;;;;1999.90;999.90;;;;;;;;;;4956834;28;20231;-71
2023/09/01 08:02:39;;;;;;;1999.90;999.90;;;;;;;;;;4961414;28;20407;-73
2023/09/01 08:05:24;;;;;;;1999.90;999.90;;;;;;;;;;4958465;28;20215;-73
2023/09/01 08:08:12;;;;;;;1999.90;999.90;;;;;;;;;;4954688;28;20308;-73
2023/09/01 08:10:57;;;;;;;1999.90;999.90;;;;;;;;;;4955056;28;20217;-73
2023/09/01 08:13:42;;;;;;;1999.90;999.90;;;;;;;;;;4955068;28;20227;-74
2023/09/01 08:16:27;;;;;;;1999.90;999.90;;;;;;;;;;4955089;28;20626;-73
2023/09/01 08:19:13;;;;;;;1999.90;999.90;;;;;;;;;;4959122;28;20256;-71
2023/09/01 08:21:58;;;;;;;1999.90;999.90;;;;;;;;;;4965548;28;20404;-74
2023/09/01 08:24:44;;;;;;;1999.90;999.90;;;;;;;;;;4950030;28;20497;-73
2023/09/01 08:27:28;;;;;;;1999.90;999.90;;;;;;;;;;4959650;28;20235;-74
2023/09/01 08:30:14;;;;;;;1999.90;999.90;;;;;;;;;;4955906;28;20219;-73
2023/09/01 08:33:00;;;;;;;1999.90;999.90;;;;;;;;;;4953603;28;20283;-74
2023/09/01 08:35:47;;;;;;;1999.90;999.90;;;;;;;;;;4957211;28;20343;-72
2023/09/01 08:38:32;;;;;;;1999.90;999.90;;;;;;;;;;4964461;28;20331;-73
2023/09/01 08:41:17;;;;;;;1999.90;999.90;;;;;;;;;;4956114;28;20212;-72
2023/09/01 08:44:05;;;;;;;1999.90;999.90;;;;;;;;;;4961563;28;20314;-73
2023/09/01 08:46:52;;;;;;;1999.90;999.90;;;;;;;;;;4950775;28;20239;-74
2023/09/01 08:49:37;;;;;;;1999.90;999.90;;;;;;;;;;4956473;28;20276;-72
2023/09/01 08:52:25;;;;;;;1999.90;999.90;;;;;;;;;;4955477;28;20216;-73
2023/09/01 08:55:10;;;;;;;1999.90;999.90;;;;;;;;;;4956278;28;20766;-74
2023/09/01 08:57:56;;;;;;;1999.90;999.90;;;;;;;;;;4955671;28;20856;-73
2023/09/01 09:00:41;;;;;;;1999.90;999.90;;;;;;;;;;4956230;28;20209;-74
2023/09/01 09:03:25;;;;;;;1999.90;999.90;;;;;;;;;;4956160;28;20213;-72
2023/09/01 09:06:12;;;;;;;1999.90;999.90;;;;;;;;;;4958523;28;20748;-74
2023/09/01 09:09:03;;;;;;;1999.90;999.90;;;;;;;;;;4955804;28;20276;-74
2023/09/01 09:11:56;;;;;;;1999.90;999.90;;;;;;;;;;4955684;28;20207;-74
2023/09/01 09:14:46;;;;;;;1999.90;999.90;;;;;;;;;;4957849;28;20678;-73
2023/09/01 09:17:40;;;;;;;1999.90;999.90;;;;;;;;;;4958706;28;20922;-74
2023/09/01 09:20:36;;;;;;;1999.90;999.90;;;;;;;;;;4953423;28;20591;-72
2023/09/01 09:23:21;;;;;;;1999.90;999.90;;;;;;;;;;4955626;28;20723;-74
2023/09/01 09:26:07;;;;;;;1999.90;999.90;;;;;;;;;;4955668;28;20212;-72
2023/09/01 09:28:52;;;;;;;1999.90;999.90;;;;;;;;;;4955292;28;20357;-74
2023/09/01 09:31:39;;;;;;;1999.90;999.90;;;;;;;;;;4958227;28;20800;-73
2023/09/01 09:34:24;;;;;;;1999.90;999.90;;;;;;;;;;4957147;28;20709;-73
2023/09/01 09:37:14;;;;;;;1999.90;999.90;;;;;;;;;;4957581;28;20332;-74
2023/09/01 09:40:14;;;;;;;1999.90;999.90;;;;;;;;;;4959268;28;20223;-73
2023/09/01 09:43:01;;;;;;;1999.90;999.90;;;;;;;;;;4968216;28;20211;-73
2023/09/01 09:45:46;;;;;;;1999.90;999.90;;;;;;;;;;4957422;28;20221;-74
2023/09/01 09:48:32;;;;;;;1999.90;999.90;;;;;;;;;;4962536;28;20240;-74
2023/09/01 09:51:18;;;;;;;1999.90;999.90;;;;;;;;;;4956799;28;20263;-72
2023/09/01 09:54:04;;;;;;;1999.90;999.90;;;;;;;;;;4958793;28;20208;-73
2023/09/01 09:56:50;;;;;;;1999.90;999.90;;;;;;;;;;4960112;28;20216;-71
2023/09/01 09:59:42;;;;;;;1999.90;999.90;;;;;;;;;;4955573;28;20264;-73
2023/09/01 10:02:30;;;;;;;1999.90;999.90;;;;;;;;;;4955654;28;20632;-74
2023/09/01 10:05:16;;;;;;;1999.90;999.90;;;;;;;;;;4961828;28;20220;-73
2023/09/01 10:08:02;;;;;;;1999.90;999.90;;;;;;;;;;4969029;28;20749;-74
2023/09/01 10:10:49;;;;;;;1999.90;999.90;;;;;;;;;;4957598;28;20216;-74
2023/09/01 10:13:33;;;;;;;1999.90;999.90;;;;;;;;;;4960836;28;20258;-75
2023/09/01 10:16:20;;;;;;;1999.90;999.90;;;;;;;;;;4958961;28;20701;-73
2023/09/01 10:19:05;;;;;;;1999.90;999.90;;;;;;;;;;4958204;28;20784;-72
2023/09/01 10:21:50;;;;;;;1999.90;999.90;;;;;;;;;;4961084;28;20211;-71
2023/09/01 10:24:36;;;;;;;1999.90;999.90;;;;;;;;;;4955730;28;20990;-71
2023/09/01 10:27:23;;;;;;;1999.90;999.90;;;;;;;;;;4957449;28;20284;-72
2023/09/01 10:30:24;;;;;;;1999.90;999.90;;;;;;;;;;4959059;28;20212;-73
2023/09/01 10:33:11;;;;;;;1999.90;999.90;;;;;;;;;;4955560;28;20216;-72
2023/09/01 10:35:59;;;;;;;1999.90;999.90;;;;;;;;;;4959131;28;20759;-72
2023/09/01 10:38:44;;;;;;;1999.90;999.90;;;;;;;;;;4953064;28;20564;-71
2023/09/01 10:41:44;;;;;;;1999.90;999.90;;;;;;;;;;4960965;28;20212;-72
2023/09/01 10:44:48;;;;;;;1999.90;999.90;;;;;;;;;;4955713;28;20212;-71
2023/09/01 10:47:42;;;;;;;1999.90;999.90;;;;;;;;;;4955791;28;20757;-71
2023/09/01 10:50:28;;;;;;;1999.90;999.90;;;;;;;;;;4956941;28;20212;-71
2023/09/01 10:53:30;;;;;;;1999.90;999.90;;;;;;;;;;4961793;28;20211;-73
2023/09/01 10:56:15;;;;;;;1999.90;999.90;;;;;;;;;;4956453;28;20208;-73
2023/09/01 10:59:00;;;;;;;1999.90;999.90;;;;;;;;;;4956973;28;20243;-72
2023/09/01 11:01:45;;;;;;;1999.90;999.90;;;;;;;;;;4960971;28;20211;-72
2023/09/01 11:04:33;;;;;;;1999.90;999.90;;;;;;;;;;4965338;28;20682;-71
2023/09/01 11:07:20;;;;;;;1999.90;999.90;;;;;;;;;;4955387;28;20449;-71
2023/09/01 11:10:05;;;;;;;1999.90;999.90;;;;;;;;;;4957435;28;20724;-74
2023/09/01 11:12:50;;;;;;;1999.90;999.90;;;;;;;;;;4954418;28;20220;-72
2023/09/01 11:15:35;;;;;;;1999.90;999.90;;;;;;;;;;4955834;28;20240;-74
2023/09/01 11:18:20;;;;;;;1999.90;999.90;;;;;;;;;;4954706;28;20232;-71
2023/09/01 11:21:08;;;;;;;1999.90;999.90;;;;;;;;;;4954571;28;20216;-72
2023/09/01 11:23:58;;;;;;;1999.90;999.90;;;;;;;;;;4951585;28;20204;-74
2023/09/01 11:26:43;;;;;;;1999.90;999.90;;;;;;;;;;4954015;28;20577;-71
2023/09/01 11:29:28;;;;;;;1999.90;999.90;;;;;;;;;;4952050;28;20228;-73
2023/09/01 11:32:24;;;;;;;1999.90;999.90;;;;;;;;;;4954748;28;20223;-72
2023/09/01 11:35:20;;;;;;;1999.90;999.90;;;;;;;;;;4955364;28;20311;-70
2023/09/01 11:38:05;;;;;;;1999.90;999.90;;;;;;;;;;4961408;28;20228;-73
2023/09/01 11:40:52;;;;;;;1999.90;999.90;;;;;;;;;;4957212;28;20326;-74
2023/09/01 11:43:37;;;;;;;1999.90;999.90;;;;;;;;;;4958300;28;20212;-71
2023/09/01 11:46:30;;;;;;;1999.90;999.90;;;;;;;;;;4954064;28;20436;-72
2023/09/01 11:49:16;;;;;;;1999.90;999.90;;;;;;;;;;4956686;28;20768;-73
2023/09/01 11:52:01;;;;;;;1999.90;999.90;;;;;;;;;;4958509;28;20591;-72
2023/09/01 11:54:46;;;;;;;1999.90;999.90;;;;;;;;;;4955776;28;20290;-71
2023/09/01 11:57:33;;;;;;;1999.90;999.90;;;;;;;;;;4956249;28;20320;-73
2023/09/01 12:00:28;;;;;;;1999.90;999.90;;;;;;;;;;4953195;28;20704;-71
2023/09/01 12:03:13;;;;;;;1999.90;999.90;;;;;;;;;;4954504;28;20221;-72
2023/09/01 12:05:58;;;;;;;1999.90;999.90;;;;;;;;;;4957080;28;20228;-75
2023/09/01 12:08:43;;;;;;;1999.90;999.90;;;;;;;;;;4952708;28;20256;-73
2023/09/01 12:11:28;;;;;;;1999.90;999.90;;;;;;;;;;4959072;28;20216;-72
2023/09/01 12:14:24;;;;;;;1999.90;999.90;;;;;;;;;;4954154;28;20216;-73
2023/09/01 12:17:16;;;;;;;1999.90;999.90;;;;;;;;;;4960623;28;20208;-76
2023/09/01 12:20:01;;;;;;;1999.90;999.90;;;;;;;;;;4934861;29;20214;-73
2023/09/01 12:22:46;;;;;;;1999.90;999.90;;;;;;;;;;4942187;28;20255;-73
2023/09/01 12:25:31;;;;;;;1999.90;999.90;;;;;;;;;;4956052;28;20331;-72
2023/09/01 12:28:16;;;;;;;1999.90;999.90;;;;;;;;;;4957270;28;20241;-71
2023/09/01 12:41:32;;;;;;;1999.90;999.90;;;;;;;;;;5087506;27;21020;-73
2023/09/01 12:44:18;;;;;;;1999.90;999.90;;;;;;;;;;5087054;28;20215;-73
2023/09/01 12:47:04;;;;;;;1999.90;999.90;;;;;;;;;;5085333;28;20691;-74
2023/09/01 12:49:49;;;;;;;1999.90;999.90;;;;;;;;;;5087089;28;20233;-73
2023/09/01 12:52:35;;;;;;;1999.90;999.90;;;;;;;;;;5087027;28;20209;-75
2023/09/01 12:55:20;;;;;;;1999.90;999.90;;;;;;;;;;5086391;28;20674;-74
2023/09/01 12:58:06;;;;;;;1999.90;999.90;;;;;;;;;;5089661;28;20765;-75
2023/09/01 13:00:51;;;;;;;1999.90;999.90;;;;;;;;;;5088871;28;20735;-74
2023/09/01 13:03:36;;;;;;;1999.90;999.90;;;;;;;;;;5088643;28;20291;-73
2023/09/01 13:06:21;;;;;;;1999.90;999.90;;;;;;;;;;5087982;28;20207;-72
2023/09/01 13:09:07;;;;;;;1999.90;999.90;;;;;;;;;;5088135;28;20231;-73
2023/09/01 13:11:52;;;;;;;1999.90;999.90;;;;;;;;;;5088095;28;20209;-72
2023/09/01 13:14:38;;;;;;;1999.90;999.90;;;;;;;;;;5088886;28;20202;-72
2023/09/01 13:17:23;;;;;;;1999.90;999.90;;;;;;;;;;5088641;28;20218;-72
2023/09/01 13:20:09;;;;;;;1999.90;999.90;;;;;;;;;;5088233;28;20232;-72
2023/09/01 13:22:54;;;;;;;1999.90;999.90;;;;;;;;;;5088636;28;20210;-73
2023/09/01 13:25:39;;;;;;;1999.90;999.90;;;;;;;;;;5088559;28;20214;-72
2023/09/01 13:28:24;;;;;;;1999.90;999.90;;;;;;;;;;5088376;28;20235;-72
2023/09/01 13:31:10;;;;;;;1999.90;999.90;;;;;;;;;;5093987;28;20214;-74
2023/09/01 13:33:55;;;;;;;1999.90;999.90;;;;;;;;;;5084445;28;20212;-73
2023/09/01 13:36:39;;;;;;;1999.90;999.90;;;;;;;;;;5085000;28;20578;-73
2023/09/01 13:39:24;;;;;;;1999.90;999.90;;;;;;;;;;5085296;28;20223;-74
2023/09/01 13:42:09;;;;;;;1999.90;999.90;;;;;;;;;;5072132;28;20207;-73
2023/09/01 13:44:55;;;;;;;1999.90;999.90;;;;;;;;;;5075414;28;20700;-75
2023/09/01 13:47:42;;;;;;;1999.90;999.90;;;;;;;;;;5072152;28;20207;-72
2023/09/01 13:50:27;;;;;;;1999.90;999.90;;;;;;;;;;5068735;28;20363;-72
2023/09/01 13:53:12;;;;;;;1999.90;999.90;;;;;;;;;;5072920;28;20211;-72
2023/09/01 13:55:56;;;;;;;1999.90;999.90;;;;;;;;;;5073822;28;20246;-74
2023/09/01 13:58:41;;;;;;;1999.90;999.90;;;;;;;;;;5073498;28;20167;-74
2023/09/01 14:01:26;;;;;;;1999.90;999.90;;;;;;;;;;5072926;28;20208;-73
2023/09/01 14:04:12;;;;;;;1999.90;999.90;;;;;;;;;;5079197;28;20296;-73
2023/09/01 14:06:57;;;;;;;1999.90;999.90;;;;;;;;;;5081656;28;20206;-73
2023/09/01 14:09:42;;;;;;;1999.90;999.90;;;;;;;;;;5073336;28;20600;-72
2023/09/01 14:12:27;;;;;;;1999.90;999.90;;;;;;;;;;5073724;28;20207;-73
2023/09/01 14:15:12;;;;;;;1999.90;999.90;;;;;;;;;;5073887;28;20204;-73
2023/09/01 14:17:57;;;;;;;1999.90;999.90;;;;;;;;;;5091264;28;20593;-73
2023/09/01 14:20:43;;;;;;;1999.90;999.90;;;;;;;;;;5079146;28;20204;-73
2023/09/01 14:23:28;;;;;;;1999.90;999.90;;;;;;;;;;5077256;28;20335;-73
2023/09/01 14:26:13;;;;;;;1999.90;999.90;;;;;;;;;;5078292;28;20199;-74
2023/09/01 14:28:58;;;;;;;1999.90;999.90;;;;;;;;;;5093899;28;20739;-73
2023/09/01 14:31:43;;;;;;;1999.90;999.90;;;;;;;;;;5076524;28;20566;-74
2023/09/01 14:34:28;;;;;;;1999.90;999.90;;;;;;;;;;5069266;28;20834;-74
2023/09/01 14:37:14;;;;;;;1999.90;999.90;;;;;;;;;;5066408;28;20204;-72
2023/09/01 14:39:59;;;;;;;1999.90;999.90;;;;;;;;;;5062255;28;20704;-72
2023/09/01 14:42:44;;;;;;;1999.90;999.90;;;;;;;;;;5066535;28;20316;-72
2023/09/01 14:45:30;;;;;;;1999.90;999.90;;;;;;;;;;5080533;28;20400;-73
2023/09/01 14:48:15;;;;;;;1999.90;999.90;;;;;;;;;;5071341;28;20236;-73
2023/09/01 14:50:59;;;;;;;1999.90;999.90;;;;;;;;;;5080161;28;20266;-74
2023/09/01 14:53:46;;;;;;;1999.90;999.90;;;;;;;;;;5056765;28;20353;-73
2023/09/01 14:56:30;;;;;;;1999.90;999.90;;;;;;;;;;5086959;28;20331;-73
2023/09/01 14:59:15;;;;;;;1999.90;999.90;;;;;;;;;;5064838;28;20294;-72
2023/09/01 15:02:04;;;;;;;1999.90;999.90;;;;;;;;;;5073173;28;20708;-72
2023/09/01 15:04:49;;;;;;;1999.90;999.90;;;;;;;;;;5069572;28;20208;-72
2023/09/01 15:07:34;;;;;;;1999.90;999.90;;;;;;;;;;5072890;28;20766;-74
2023/09/01 15:10:20;;;;;;;1999.90;999.90;;;;;;;;;;5072601;28;20226;-72
2023/09/01 15:13:15;;;;;;;1999.90;999.90;;;;;;;;;;5072951;28;20715;-72
2023/09/01 15:16:00;;;;;;;1999.90;999.90;;;;;;;;;;5062861;28;20271;-73
2023/09/01 15:18:45;;;;;;;1999.90;999.90;;;;;;;;;;5076152;28;20227;-70
2023/09/01 15:21:30;;;;;;;1999.90;999.90;;;;;;;;;;5079701;28;20272;-72
2023/09/01 15:24:15;;;;;;;1999.90;999.90;;;;;;;;;;5075021;28;20259;-72
2023/09/01 15:27:02;;;;;;;1999.90;999.90;;;;;;;;;;5069316;28;20290;-72
2023/09/01 15:29:49;;;;;;;1999.90;999.90;;;;;;;;;;5064299;28;20228;-72
2023/09/01 15:32:34;;;;;;;1999.90;999.90;;;;;;;;;;5075286;28;20211;-72
2023/09/01 15:35:19;;;;;;;1999.90;999.90;;;;;;;;;;5075576;28;20285;-72
2023/09/01 15:38:05;;;;;;;1999.90;999.90;;;;;;;;;;5072980;28;20278;-71